DLH3FN ESSA-EDDM
Flight info
| Callsign | DLH3FN |
|---|---|
| Flight time | 1h 50m |
| Altitude | 40000 |
| Route | NOSLI N850 ABAMA/N0496F430 DCT BEDOS DCT BIKRU/N0493F410 DCT CIPPI DCT POGAB/N0494F430 Z36 BEBKU DCT MAREM DCT BALTU DCT VESUB T106 TUSTO T108 LANDU LANDU2B |
| Aircraft | B789/H-SDE1E2E3FGHIJ2J3J4J5M1RWXY/LB1D1 |
Departure
| Time | 2026-05-06 17:59 |
|---|---|
| Airport | Stockholm-Arlanda Airport (ESSA) |
Arrival
| Time | 2026-05-06 19:49 |
|---|---|
| Airport | Munich Airport (EDDM) |
| Time | Latitude | Longitude | Altitude | Speed | Heading |
|---|---|---|---|---|---|
| 2026-05-06 17:24 | 59.65355 | 17.93513 | 117 ft | 0 kts | 76° |
| 2026-05-06 17:44 | 59.65354 | 17.93506 | 117 ft | 3 kts | 76° |
| 2026-05-06 17:44 | 59.65349 | 17.93467 | 117 ft | 3 kts | 75° |
| 2026-05-06 17:44 | 59.65342 | 17.93433 | 117 ft | 3 kts | 43° |
| 2026-05-06 17:45 | 59.65326 | 17.93415 | 117 ft | 3 kts | 4° |
| 2026-05-06 17:45 | 59.65306 | 17.93417 | 117 ft | 3 kts | 347° |
| 2026-05-06 17:45 | 59.65303 | 17.93418 | 117 ft | 0 kts | 347° |
| 2026-05-06 17:49 | 59.65308 | 17.93416 | 117 ft | 4 kts | 347° |
| 2026-05-06 17:49 | 59.65348 | 17.93397 | 117 ft | 8 kts | 346° |
| 2026-05-06 17:49 | 59.65430 | 17.93356 | 117 ft | 12 kts | 346° |
| 2026-05-06 17:50 | 59.65458 | 17.93346 | 117 ft | 0 kts | 356° |
| 2026-05-06 17:51 | 59.65477 | 17.93346 | 117 ft | 7 kts | 1° |
| 2026-05-06 17:51 | 59.65516 | 17.93306 | 118 ft | 6 kts | 296° |
| 2026-05-06 17:51 | 59.65512 | 17.93156 | 117 ft | 15 kts | 257° |
| 2026-05-06 17:52 | 59.65480 | 17.92935 | 117 ft | 18 kts | 251° |
| 2026-05-06 17:52 | 59.65436 | 17.92708 | 117 ft | 11 kts | 256° |
| 2026-05-06 17:52 | 59.65470 | 17.92589 | 113 ft | 14 kts | 328° |
| 2026-05-06 17:52 | 59.65607 | 17.92491 | 109 ft | 28 kts | 345° |
| 2026-05-06 17:53 | 59.65769 | 17.92428 | 111 ft | 21 kts | 2° |
| 2026-05-06 17:53 | 59.65917 | 17.92476 | 114 ft | 22 kts | 10° |
| 2026-05-06 17:53 | 59.66081 | 17.92535 | 117 ft | 25 kts | 10° |
| 2026-05-06 17:53 | 59.66252 | 17.92598 | 121 ft | 25 kts | 10° |
| 2026-05-06 17:54 | 59.66401 | 17.92650 | 127 ft | 18 kts | 7° |
| 2026-05-06 17:54 | 59.66515 | 17.92618 | 129 ft | 11 kts | 342° |
| 2026-05-06 17:54 | 59.66535 | 17.92605 | 129 ft | 0 kts | 341° |
| 2026-05-06 17:55 | 59.66545 | 17.92599 | 130 ft | 6 kts | 341° |
| 2026-05-06 17:55 | 59.66597 | 17.92549 | 130 ft | 9 kts | 320° |
| 2026-05-06 17:55 | 59.66613 | 17.92429 | 129 ft | 10 kts | 257° |
| 2026-05-06 17:56 | 59.66568 | 17.92350 | 129 ft | 8 kts | 193° |
| 2026-05-06 17:56 | 59.66558 | 17.92347 | 129 ft | 0 kts | 188° |
| 2026-05-06 17:58 | 59.66532 | 17.92338 | 129 ft | 19 kts | 189° |
| 2026-05-06 17:58 | 59.66148 | 17.92199 | 125 ft | 97 kts | 190° |
| 2026-05-06 17:58 | 59.65228 | 17.91879 | 219 ft | 158 kts | 186° |
| 2026-05-06 17:59 | 59.64185 | 17.91583 | 935 ft | 155 kts | 187° |
| 2026-05-06 17:59 | 59.63068 | 17.91303 | 1508 ft | 169 kts | 188° |
| 2026-05-06 17:59 | 59.61887 | 17.90993 | 2251 ft | 168 kts | 188° |
| 2026-05-06 17:59 | 59.60753 | 17.90695 | 3123 ft | 163 kts | 188° |
| 2026-05-06 18:00 | 59.59676 | 17.90030 | 3788 ft | 169 kts | 216° |
| 2026-05-06 18:00 | 59.58968 | 17.88153 | 4308 ft | 183 kts | 245° |
| 2026-05-06 18:00 | 59.58376 | 17.85875 | 4939 ft | 192 kts | 242° |
| 2026-05-06 18:00 | 59.57657 | 17.83495 | 5283 ft | 215 kts | 232° |
| 2026-05-06 18:01 | 59.56578 | 17.81296 | 5750 ft | 231 kts | 220° |
| 2026-05-06 18:01 | 59.55187 | 17.79431 | 6072 ft | 252 kts | 209° |
| 2026-05-06 18:01 | 59.53608 | 17.77807 | 6854 ft | 261 kts | 207° |
| 2026-05-06 18:01 | 59.51946 | 17.76070 | 7282 ft | 276 kts | 210° |
| 2026-05-06 18:02 | 59.50259 | 17.74115 | 7513 ft | 288 kts | 212° |
| 2026-05-06 18:02 | 59.48554 | 17.72026 | 7560 ft | 290 kts | 212° |
| 2026-05-06 18:02 | 59.46839 | 17.70004 | 8355 ft | 291 kts | 210° |
| 2026-05-06 18:02 | 59.45081 | 17.68088 | 9493 ft | 287 kts | 209° |
| 2026-05-06 18:03 | 59.43330 | 17.66143 | 10339 ft | 293 kts | 210° |
| 2026-05-06 18:03 | 59.41519 | 17.64075 | 10878 ft | 309 kts | 210° |
| 2026-05-06 18:03 | 59.39616 | 17.61906 | 11358 ft | 325 kts | 210° |
| 2026-05-06 18:03 | 59.37613 | 17.59649 | 11790 ft | 340 kts | 210° |
| 2026-05-06 18:04 | 59.35511 | 17.57290 | 12173 ft | 356 kts | 210° |
| 2026-05-06 18:04 | 59.33318 | 17.54823 | 12543 ft | 370 kts | 210° |
| 2026-05-06 18:04 | 59.31062 | 17.52285 | 13072 ft | 378 kts | 210° |
| 2026-05-06 18:04 | 59.28798 | 17.49745 | 13668 ft | 382 kts | 210° |
| 2026-05-06 18:05 | 59.26479 | 17.47151 | 14270 ft | 386 kts | 210° |
| 2026-05-06 18:05 | 59.24228 | 17.44635 | 14816 ft | 390 kts | 210° |
| 2026-05-06 18:05 | 59.21855 | 17.41985 | 15358 ft | 394 kts | 210° |
| 2026-05-06 18:05 | 59.19464 | 17.39319 | 15855 ft | 398 kts | 210° |
| 2026-05-06 18:06 | 59.17042 | 17.36625 | 16324 ft | 402 kts | 210° |
| 2026-05-06 18:06 | 59.14615 | 17.33930 | 16778 ft | 405 kts | 210° |
| 2026-05-06 18:06 | 59.12141 | 17.31186 | 17214 ft | 409 kts | 210° |
| 2026-05-06 18:06 | 59.09657 | 17.28436 | 17625 ft | 412 kts | 210° |
| 2026-05-06 18:07 | 59.07178 | 17.25606 | 17956 ft | 414 kts | 213° |
| 2026-05-06 18:07 | 59.04935 | 17.22162 | 18230 ft | 418 kts | 220° |
| 2026-05-06 18:07 | 59.02729 | 17.18474 | 18609 ft | 420 kts | 221° |
| 2026-05-06 18:07 | 59.00499 | 17.14779 | 18945 ft | 422 kts | 220° |
| 2026-05-06 18:08 | 58.98219 | 17.11151 | 19259 ft | 425 kts | 219° |
| 2026-05-06 18:08 | 58.95922 | 17.07522 | 19542 ft | 427 kts | 219° |
| 2026-05-06 18:08 | 58.93632 | 17.03840 | 19801 ft | 430 kts | 220° |
| 2026-05-06 18:08 | 58.91332 | 17.00120 | 20051 ft | 432 kts | 220° |
| 2026-05-06 18:09 | 58.89013 | 16.96407 | 20302 ft | 434 kts | 219° |
| 2026-05-06 18:09 | 58.86678 | 16.92700 | 20543 ft | 436 kts | 219° |
| 2026-05-06 18:09 | 58.84367 | 16.89025 | 20771 ft | 437 kts | 219° |
| 2026-05-06 18:09 | 58.82014 | 16.85275 | 20981 ft | 439 kts | 219° |
| 2026-05-06 18:10 | 58.79648 | 16.81515 | 21183 ft | 441 kts | 219° |
| 2026-05-06 18:10 | 58.77241 | 16.77854 | 21325 ft | 443 kts | 216° |
| 2026-05-06 18:10 | 58.74638 | 16.74651 | 21499 ft | 444 kts | 211° |
| 2026-05-06 18:10 | 58.71953 | 16.71676 | 21685 ft | 445 kts | 210° |
| 2026-05-06 18:11 | 58.69309 | 16.68560 | 21844 ft | 447 kts | 213° |
| 2026-05-06 18:11 | 58.66716 | 16.65255 | 22022 ft | 448 kts | 214° |
| 2026-05-06 18:11 | 58.64103 | 16.61986 | 22188 ft | 449 kts | 212° |
| 2026-05-06 18:11 | 58.61472 | 16.58857 | 22341 ft | 451 kts | 211° |
| 2026-05-06 18:12 | 58.58800 | 16.55692 | 22483 ft | 452 kts | 212° |
| 2026-05-06 18:12 | 58.56145 | 16.52465 | 22618 ft | 453 kts | 213° |
| 2026-05-06 18:12 | 58.53482 | 16.49209 | 22746 ft | 454 kts | 212° |
| 2026-05-06 18:12 | 58.50802 | 16.45983 | 22872 ft | 455 kts | 212° |
| 2026-05-06 18:13 | 58.48112 | 16.42775 | 22996 ft | 457 kts | 212° |
| 2026-05-06 18:13 | 58.45419 | 16.39550 | 23114 ft | 458 kts | 212° |
| 2026-05-06 18:13 | 58.42722 | 16.36309 | 23228 ft | 458 kts | 212° |
| 2026-05-06 18:13 | 58.40052 | 16.33111 | 23339 ft | 459 kts | 212° |
| 2026-05-06 18:14 | 58.37339 | 16.29880 | 23449 ft | 460 kts | 212° |
| 2026-05-06 18:14 | 58.34621 | 16.26650 | 23554 ft | 461 kts | 212° |
| 2026-05-06 18:14 | 58.31902 | 16.23417 | 23656 ft | 462 kts | 212° |
| 2026-05-06 18:14 | 58.29170 | 16.20171 | 23757 ft | 463 kts | 212° |
| 2026-05-06 18:15 | 58.26434 | 16.16931 | 23842 ft | 464 kts | 212° |
| 2026-05-06 18:15 | 58.23687 | 16.13687 | 23928 ft | 465 kts | 212° |
| 2026-05-06 18:15 | 58.20943 | 16.10450 | 24019 ft | 465 kts | 212° |
| 2026-05-06 18:15 | 58.18192 | 16.07209 | 24103 ft | 466 kts | 212° |
| 2026-05-06 18:16 | 58.15437 | 16.03970 | 24178 ft | 467 kts | 212° |
| 2026-05-06 18:16 | 58.12711 | 16.00771 | 24249 ft | 468 kts | 212° |
| 2026-05-06 18:16 | 58.09942 | 15.97529 | 24325 ft | 468 kts | 212° |
| 2026-05-06 18:16 | 58.07168 | 15.94286 | 24393 ft | 469 kts | 212° |
| 2026-05-06 18:17 | 58.04395 | 15.91050 | 24460 ft | 469 kts | 212° |
| 2026-05-06 18:17 | 58.01615 | 15.87813 | 24515 ft | 470 kts | 212° |
| 2026-05-06 18:17 | 57.98831 | 15.84576 | 24571 ft | 470 kts | 212° |
| 2026-05-06 18:17 | 57.96044 | 15.81342 | 24630 ft | 471 kts | 212° |
| 2026-05-06 18:18 | 57.93253 | 15.78110 | 24680 ft | 471 kts | 212° |
| 2026-05-06 18:18 | 57.90457 | 15.74876 | 24730 ft | 472 kts | 212° |
| 2026-05-06 18:18 | 57.87694 | 15.71689 | 24784 ft | 472 kts | 212° |
| 2026-05-06 18:18 | 57.84892 | 15.68461 | 24828 ft | 473 kts | 211° |
| 2026-05-06 18:19 | 57.82086 | 15.65236 | 24871 ft | 473 kts | 211° |
| 2026-05-06 18:19 | 57.79285 | 15.62020 | 24913 ft | 474 kts | 211° |
| 2026-05-06 18:19 | 57.76467 | 15.58793 | 24960 ft | 474 kts | 211° |
| 2026-05-06 18:19 | 57.73654 | 15.55576 | 24998 ft | 474 kts | 211° |
| 2026-05-06 18:20 | 57.70873 | 15.52403 | 25072 ft | 474 kts | 211° |
| 2026-05-06 18:20 | 57.68065 | 15.49204 | 25107 ft | 474 kts | 211° |
| 2026-05-06 18:20 | 57.65244 | 15.45996 | 25196 ft | 473 kts | 211° |
| 2026-05-06 18:20 | 57.62460 | 15.42836 | 25568 ft | 466 kts | 211° |
| 2026-05-06 18:21 | 57.59689 | 15.39697 | 25734 ft | 464 kts | 211° |
| 2026-05-06 18:21 | 57.56953 | 15.36603 | 26127 ft | 457 kts | 211° |
| 2026-05-06 18:21 | 57.54250 | 15.33548 | 26515 ft | 452 kts | 211° |
| 2026-05-06 18:21 | 57.51680 | 15.30254 | 26888 ft | 447 kts | 217° |
| 2026-05-06 18:22 | 57.49333 | 15.26491 | 27221 ft | 444 kts | 223° |
| 2026-05-06 18:22 | 57.47230 | 15.22354 | 27191 ft | 450 kts | 229° |
| 2026-05-06 18:22 | 57.45328 | 15.17706 | 27176 ft | 455 kts | 236° |
| 2026-05-06 18:22 | 57.43679 | 15.12656 | 27174 ft | 458 kts | 241° |
| 2026-05-06 18:23 | 57.42255 | 15.07429 | 27490 ft | 450 kts | 244° |
| 2026-05-06 18:23 | 57.40933 | 15.02183 | 27813 ft | 448 kts | 245° |
| 2026-05-06 18:23 | 57.39655 | 14.96943 | 28130 ft | 445 kts | 245° |
| 2026-05-06 18:23 | 57.38395 | 14.91708 | 28446 ft | 443 kts | 246° |
| 2026-05-06 18:24 | 57.37093 | 14.86562 | 28746 ft | 440 kts | 241° |
| 2026-05-06 18:24 | 57.35317 | 14.81964 | 28994 ft | 439 kts | 228° |
| 2026-05-06 18:24 | 57.33046 | 14.78218 | 29245 ft | 438 kts | 216° |
| 2026-05-06 18:24 | 57.30387 | 14.75501 | 29500 ft | 437 kts | 203° |
| 2026-05-06 18:25 | 57.27510 | 14.73964 | 29753 ft | 436 kts | 190° |
| 2026-05-06 18:25 | 57.24489 | 14.73576 | 30022 ft | 435 kts | 180° |
| 2026-05-06 18:25 | 57.21467 | 14.73815 | 30318 ft | 434 kts | 176° |
| 2026-05-06 18:25 | 57.18444 | 14.74152 | 30417 ft | 437 kts | 177° |
| 2026-05-06 18:26 | 57.15418 | 14.74268 | 30655 ft | 436 kts | 181° |
| 2026-05-06 18:26 | 57.12375 | 14.73801 | 30610 ft | 443 kts | 187° |
| 2026-05-06 18:26 | 57.09331 | 14.72951 | 30733 ft | 439 kts | 189° |
| 2026-05-06 18:26 | 57.06323 | 14.72109 | 30922 ft | 439 kts | 187° |
| 2026-05-06 18:27 | 57.00172 | 14.71266 | 30993 ft | 447 kts | 184° |
| 2026-05-06 18:27 | 56.93918 | 14.70099 | 31001 ft | 456 kts | 186° |
| 2026-05-06 18:28 | 56.87596 | 14.69017 | 31008 ft | 463 kts | 185° |
| 2026-05-06 18:28 | 56.81130 | 14.67916 | 31013 ft | 470 kts | 186° |
| 2026-05-06 18:29 | 56.74643 | 14.66781 | 31008 ft | 475 kts | 185° |
| 2026-05-06 18:29 | 56.68016 | 14.65663 | 31013 ft | 480 kts | 186° |
| 2026-05-06 18:30 | 56.61378 | 14.64517 | 31010 ft | 485 kts | 185° |
| 2026-05-06 18:30 | 56.54637 | 14.63379 | 31011 ft | 489 kts | 185° |
| 2026-05-06 18:31 | 56.47840 | 14.62222 | 31010 ft | 492 kts | 185° |
| 2026-05-06 18:31 | 56.41000 | 14.61069 | 31011 ft | 495 kts | 185° |
| 2026-05-06 18:32 | 56.34176 | 14.59919 | 31008 ft | 497 kts | 185° |
| 2026-05-06 18:32 | 56.27277 | 14.58763 | 31011 ft | 499 kts | 185° |
| 2026-05-06 18:33 | 56.20362 | 14.57608 | 31012 ft | 500 kts | 185° |
| 2026-05-06 18:33 | 56.13427 | 14.56453 | 31009 ft | 501 kts | 185° |
| 2026-05-06 18:34 | 56.06524 | 14.55308 | 31009 ft | 502 kts | 185° |
| 2026-05-06 18:34 | 55.99565 | 14.54158 | 31009 ft | 503 kts | 185° |
| 2026-05-06 18:35 | 55.92590 | 14.53010 | 31012 ft | 503 kts | 185° |
| 2026-05-06 18:35 | 55.85613 | 14.51865 | 31010 ft | 504 kts | 185° |
| 2026-05-06 18:36 | 55.78627 | 14.50723 | 31009 ft | 504 kts | 185° |
| 2026-05-06 18:36 | 55.71690 | 14.49593 | 30986 ft | 505 kts | 185° |
| 2026-05-06 18:37 | 55.64702 | 14.48458 | 30998 ft | 503 kts | 185° |
| 2026-05-06 18:37 | 55.57740 | 14.47333 | 31029 ft | 503 kts | 185° |
| 2026-05-06 18:38 | 55.50763 | 14.46208 | 31032 ft | 503 kts | 185° |
| 2026-05-06 18:38 | 55.43780 | 14.45087 | 31033 ft | 504 kts | 185° |
| 2026-05-06 18:39 | 55.36846 | 14.43977 | 31034 ft | 504 kts | 185° |
| 2026-05-06 18:40 | 55.26352 | 14.42306 | 31035 ft | 505 kts | 185° |
| 2026-05-06 18:40 | 55.19371 | 14.40990 | 31038 ft | 505 kts | 187° |
| 2026-05-06 18:41 | 55.12381 | 14.39588 | 31080 ft | 505 kts | 186° |
| 2026-05-06 18:41 | 55.05432 | 14.38293 | 31078 ft | 505 kts | 186° |
| 2026-05-06 18:42 | 54.98448 | 14.36919 | 31094 ft | 505 kts | 186° |
| 2026-05-06 18:42 | 54.91459 | 14.35604 | 31093 ft | 505 kts | 186° |
| 2026-05-06 18:43 | 54.84469 | 14.34257 | 31126 ft | 505 kts | 186° |
| 2026-05-06 18:43 | 54.77532 | 14.32946 | 31161 ft | 505 kts | 186° |
| 2026-05-06 18:44 | 54.70666 | 14.31643 | 31220 ft | 505 kts | 186° |
| 2026-05-06 18:44 | 54.63596 | 14.30310 | 31246 ft | 505 kts | 186° |
| 2026-05-06 18:45 | 54.56600 | 14.28994 | 31072 ft | 507 kts | 186° |
| 2026-05-06 18:45 | 54.49609 | 14.27683 | 31007 ft | 503 kts | 186° |
| 2026-05-06 18:46 | 54.42658 | 14.26385 | 31005 ft | 502 kts | 186° |
| 2026-05-06 18:46 | 54.35876 | 14.25123 | 31003 ft | 502 kts | 186° |
| 2026-05-06 18:47 | 54.28933 | 14.23835 | 31003 ft | 502 kts | 186° |
| 2026-05-06 18:47 | 54.21993 | 14.22552 | 31002 ft | 502 kts | 186° |
| 2026-05-06 18:48 | 54.15054 | 14.21273 | 31002 ft | 502 kts | 186° |
| 2026-05-06 18:48 | 54.08109 | 14.19997 | 31002 ft | 502 kts | 186° |
| 2026-05-06 18:49 | 54.01213 | 14.18735 | 31002 ft | 502 kts | 186° |
| 2026-05-06 18:49 | 53.94275 | 14.17470 | 31003 ft | 502 kts | 186° |
| 2026-05-06 18:50 | 53.87331 | 14.16207 | 31003 ft | 502 kts | 186° |
| 2026-05-06 18:50 | 53.80388 | 14.14949 | 31003 ft | 502 kts | 186° |
| 2026-05-06 18:51 | 53.73443 | 14.13695 | 31002 ft | 500 kts | 186° |
| 2026-05-06 18:51 | 53.70079 | 14.13089 | 30989 ft | 473 kts | 186° |
| 2026-05-06 18:51 | 53.66844 | 14.12507 | 30991 ft | 466 kts | 186° |
| 2026-05-06 18:52 | 53.60351 | 14.11341 | 30992 ft | 473 kts | 186° |
| 2026-05-06 18:52 | 53.53805 | 14.10171 | 30997 ft | 479 kts | 186° |
| 2026-05-06 18:53 | 53.47135 | 14.08981 | 31005 ft | 483 kts | 186° |
| 2026-05-06 18:53 | 53.40455 | 14.07793 | 31008 ft | 483 kts | 186° |
| 2026-05-06 18:54 | 53.33777 | 14.06610 | 31010 ft | 482 kts | 186° |
| 2026-05-06 18:54 | 53.27103 | 14.05431 | 31010 ft | 482 kts | 186° |
| 2026-05-06 18:55 | 53.20427 | 14.04255 | 31010 ft | 482 kts | 186° |
| 2026-05-06 18:55 | 53.13750 | 14.03083 | 31011 ft | 482 kts | 186° |
| 2026-05-06 18:56 | 53.07123 | 14.01923 | 31011 ft | 482 kts | 186° |
| 2026-05-06 18:56 | 53.00445 | 14.00758 | 31011 ft | 482 kts | 186° |
| 2026-05-06 18:57 | 52.93768 | 13.99597 | 31011 ft | 482 kts | 186° |
| 2026-05-06 18:57 | 52.87095 | 13.98440 | 31011 ft | 482 kts | 186° |
| 2026-05-06 18:58 | 52.80426 | 13.97287 | 31011 ft | 482 kts | 186° |
| 2026-05-06 18:58 | 52.73867 | 13.96157 | 30989 ft | 460 kts | 186° |
| 2026-05-06 18:58 | 52.70761 | 13.95623 | 30984 ft | 437 kts | 186° |
| 2026-05-06 18:59 | 52.67807 | 13.95116 | 30985 ft | 423 kts | 186° |
| 2026-05-06 18:59 | 52.61915 | 13.94106 | 30992 ft | 428 kts | 186° |
| 2026-05-06 19:00 | 52.56022 | 13.93099 | 30993 ft | 428 kts | 186° |
| 2026-05-06 19:00 | 52.50102 | 13.92090 | 30991 ft | 428 kts | 186° |
| 2026-05-06 19:01 | 52.44172 | 13.91082 | 30993 ft | 429 kts | 186° |
| 2026-05-06 19:01 | 52.38217 | 13.90072 | 30994 ft | 431 kts | 186° |
| 2026-05-06 19:02 | 52.32243 | 13.89063 | 31003 ft | 435 kts | 186° |
| 2026-05-06 19:02 | 52.26223 | 13.88048 | 31306 ft | 433 kts | 186° |
| 2026-05-06 19:02 | 52.23274 | 13.87552 | 31554 ft | 433 kts | 186° |
| 2026-05-06 19:03 | 52.20275 | 13.87048 | 31803 ft | 433 kts | 186° |
| 2026-05-06 19:03 | 52.17279 | 13.86545 | 32050 ft | 433 kts | 186° |
| 2026-05-06 19:03 | 52.14285 | 13.86043 | 32296 ft | 432 kts | 186° |
| 2026-05-06 19:03 | 52.11290 | 13.85542 | 32540 ft | 432 kts | 186° |
| 2026-05-06 19:04 | 52.08301 | 13.85043 | 32783 ft | 432 kts | 186° |
| 2026-05-06 19:04 | 52.05313 | 13.84544 | 33025 ft | 431 kts | 186° |
| 2026-05-06 19:04 | 52.02327 | 13.84047 | 33267 ft | 431 kts | 186° |
| 2026-05-06 19:04 | 51.99345 | 13.83550 | 33508 ft | 430 kts | 186° |
| 2026-05-06 19:05 | 51.96372 | 13.83056 | 33748 ft | 430 kts | 186° |
| 2026-05-06 19:05 | 51.93436 | 13.82569 | 33984 ft | 429 kts | 186° |
| 2026-05-06 19:05 | 51.90465 | 13.82076 | 34224 ft | 429 kts | 186° |
| 2026-05-06 19:05 | 51.87504 | 13.81586 | 34462 ft | 428 kts | 186° |
| 2026-05-06 19:06 | 51.84547 | 13.81097 | 34701 ft | 427 kts | 186° |
| 2026-05-06 19:06 | 51.81593 | 13.80609 | 34906 ft | 427 kts | 186° |
| 2026-05-06 19:06 | 51.78629 | 13.80120 | 34997 ft | 430 kts | 186° |
| 2026-05-06 19:07 | 51.72619 | 13.79131 | 34993 ft | 437 kts | 186° |
| 2026-05-06 19:07 | 51.66576 | 13.78140 | 34994 ft | 436 kts | 186° |
| 2026-05-06 19:08 | 51.60595 | 13.77160 | 34995 ft | 435 kts | 186° |
| 2026-05-06 19:08 | 51.54579 | 13.76178 | 34995 ft | 435 kts | 186° |
| 2026-05-06 19:09 | 51.48500 | 13.75188 | 35012 ft | 444 kts | 186° |
| 2026-05-06 19:09 | 51.42297 | 13.74181 | 35010 ft | 452 kts | 186° |
| 2026-05-06 19:10 | 51.36032 | 13.73167 | 35013 ft | 459 kts | 186° |
| 2026-05-06 19:10 | 51.29641 | 13.72115 | 35010 ft | 463 kts | 187° |
| 2026-05-06 19:11 | 51.23389 | 13.69671 | 34998 ft | 462 kts | 197° |
| 2026-05-06 19:11 | 51.17205 | 13.66995 | 34999 ft | 460 kts | 193° |
| 2026-05-06 19:12 | 51.10983 | 13.64673 | 34998 ft | 459 kts | 195° |
| 2026-05-06 19:12 | 51.04845 | 13.62127 | 34998 ft | 460 kts | 194° |
| 2026-05-06 19:13 | 50.98614 | 13.59721 | 35003 ft | 462 kts | 194° |
| 2026-05-06 19:13 | 50.92379 | 13.57221 | 35009 ft | 463 kts | 194° |
| 2026-05-06 19:14 | 50.86130 | 13.54775 | 35008 ft | 461 kts | 194° |
| 2026-05-06 19:14 | 50.79909 | 13.52322 | 35005 ft | 460 kts | 194° |
| 2026-05-06 19:15 | 50.73725 | 13.49900 | 35001 ft | 459 kts | 194° |
| 2026-05-06 19:15 | 50.67565 | 13.47492 | 35000 ft | 460 kts | 194° |
| 2026-05-06 19:16 | 50.61342 | 13.45064 | 35003 ft | 461 kts | 194° |
| 2026-05-06 19:16 | 50.55097 | 13.42637 | 35008 ft | 463 kts | 194° |
| 2026-05-06 19:17 | 50.48858 | 13.40216 | 35008 ft | 461 kts | 194° |
| 2026-05-06 19:17 | 50.42639 | 13.37811 | 35004 ft | 459 kts | 194° |
| 2026-05-06 19:18 | 50.37035 | 13.35649 | 34999 ft | 458 kts | 194° |
| 2026-05-06 19:18 | 50.33345 | 13.34228 | 35001 ft | 459 kts | 194° |
| 2026-05-06 19:19 | 50.27129 | 13.31841 | 35005 ft | 461 kts | 194° |
| 2026-05-06 19:19 | 50.20890 | 13.29451 | 35010 ft | 462 kts | 194° |
| 2026-05-06 19:20 | 50.14638 | 13.27062 | 35009 ft | 462 kts | 194° |
| 2026-05-06 19:20 | 50.08453 | 13.24705 | 35005 ft | 459 kts | 194° |
| 2026-05-06 19:21 | 50.02261 | 13.22351 | 35000 ft | 458 kts | 194° |
| 2026-05-06 19:21 | 49.96043 | 13.19995 | 34897 ft | 464 kts | 194° |
| 2026-05-06 19:21 | 49.92901 | 13.18806 | 34433 ft | 464 kts | 194° |
| 2026-05-06 19:22 | 49.89784 | 13.17628 | 33907 ft | 459 kts | 194° |
| 2026-05-06 19:22 | 49.86688 | 13.16460 | 33377 ft | 455 kts | 194° |
| 2026-05-06 19:22 | 49.83628 | 13.15307 | 32852 ft | 452 kts | 194° |
| 2026-05-06 19:22 | 49.80610 | 13.14171 | 32323 ft | 453 kts | 194° |
| 2026-05-06 19:23 | 49.77540 | 13.13018 | 31783 ft | 454 kts | 194° |
| 2026-05-06 19:23 | 49.74466 | 13.11864 | 31246 ft | 455 kts | 194° |
| 2026-05-06 19:23 | 49.71389 | 13.10711 | 30711 ft | 455 kts | 194° |
| 2026-05-06 19:23 | 49.68312 | 13.09559 | 30176 ft | 455 kts | 194° |
| 2026-05-06 19:24 | 49.65233 | 13.08407 | 29641 ft | 455 kts | 194° |
| 2026-05-06 19:24 | 49.62150 | 13.07257 | 29105 ft | 455 kts | 194° |
| 2026-05-06 19:24 | 49.59071 | 13.06108 | 28571 ft | 456 kts | 194° |
| 2026-05-06 19:24 | 49.55984 | 13.04959 | 28037 ft | 457 kts | 194° |
| 2026-05-06 19:25 | 49.52939 | 13.03826 | 27509 ft | 457 kts | 194° |
| 2026-05-06 19:25 | 49.49855 | 13.02643 | 26972 ft | 456 kts | 196° |
| 2026-05-06 19:25 | 49.46920 | 13.00801 | 26400 ft | 457 kts | 207° |
| 2026-05-06 19:25 | 49.44155 | 12.98393 | 25857 ft | 457 kts | 211° |
| 2026-05-06 19:26 | 49.41469 | 12.95775 | 25324 ft | 457 kts | 213° |
| 2026-05-06 19:26 | 49.38763 | 12.93205 | 24787 ft | 458 kts | 210° |
| 2026-05-06 19:26 | 49.35948 | 12.90906 | 24249 ft | 459 kts | 207° |
| 2026-05-06 19:26 | 49.33107 | 12.88675 | 23715 ft | 459 kts | 208° |
| 2026-05-06 19:27 | 49.30309 | 12.86296 | 23176 ft | 460 kts | 210° |
| 2026-05-06 19:27 | 49.27588 | 12.83890 | 22645 ft | 456 kts | 210° |
| 2026-05-06 19:27 | 49.24828 | 12.81539 | 22103 ft | 452 kts | 208° |
| 2026-05-06 19:27 | 49.22067 | 12.79266 | 21558 ft | 448 kts | 208° |
| 2026-05-06 19:28 | 49.19338 | 12.76991 | 21011 ft | 445 kts | 209° |
| 2026-05-06 19:28 | 49.16648 | 12.74704 | 20464 ft | 440 kts | 209° |
| 2026-05-06 19:28 | 49.13981 | 12.72444 | 19915 ft | 436 kts | 209° |
| 2026-05-06 19:28 | 49.11334 | 12.70232 | 19366 ft | 432 kts | 208° |
| 2026-05-06 19:29 | 49.08710 | 12.68044 | 18818 ft | 428 kts | 208° |
| 2026-05-06 19:29 | 49.06111 | 12.65867 | 18268 ft | 424 kts | 209° |
| 2026-05-06 19:29 | 49.03543 | 12.63713 | 17718 ft | 420 kts | 209° |
| 2026-05-06 19:29 | 49.01027 | 12.61611 | 17175 ft | 416 kts | 208° |
| 2026-05-06 19:30 | 48.98503 | 12.59509 | 16625 ft | 411 kts | 208° |
| 2026-05-06 19:30 | 48.96004 | 12.57428 | 16074 ft | 407 kts | 208° |
| 2026-05-06 19:30 | 48.93528 | 12.55366 | 15523 ft | 403 kts | 209° |
| 2026-05-06 19:30 | 48.91081 | 12.53331 | 14972 ft | 400 kts | 208° |
| 2026-05-06 19:31 | 48.88678 | 12.51337 | 14415 ft | 385 kts | 208° |
| 2026-05-06 19:31 | 48.86377 | 12.49429 | 13850 ft | 370 kts | 208° |
| 2026-05-06 19:31 | 48.82023 | 12.45822 | 12710 ft | 346 kts | 208° |
| 2026-05-06 19:32 | 48.80630 | 12.44670 | 12335 ft | 343 kts | 208° |
| 2026-05-06 19:32 | 48.77873 | 12.42391 | 11590 ft | 339 kts | 208° |
| 2026-05-06 19:32 | 48.75814 | 12.40692 | 11033 ft | 336 kts | 208° |
| 2026-05-06 19:32 | 48.73772 | 12.39002 | 10518 ft | 332 kts | 209° |
| 2026-05-06 19:33 | 48.71774 | 12.37295 | 10177 ft | 328 kts | 210° |
| 2026-05-06 19:33 | 48.69792 | 12.35585 | 10017 ft | 328 kts | 210° |
| 2026-05-06 19:33 | 48.67805 | 12.33893 | 10012 ft | 329 kts | 209° |
| 2026-05-06 19:33 | 48.65800 | 12.32198 | 10011 ft | 330 kts | 209° |
| 2026-05-06 19:34 | 48.63797 | 12.30503 | 10012 ft | 330 kts | 209° |
| 2026-05-06 19:34 | 48.62465 | 12.29374 | 10010 ft | 331 kts | 209° |
| 2026-05-06 19:34 | 48.60460 | 12.27675 | 10009 ft | 331 kts | 209° |
| 2026-05-06 19:34 | 48.58449 | 12.25975 | 10012 ft | 332 kts | 209° |
| 2026-05-06 19:35 | 48.56423 | 12.24265 | 9792 ft | 335 kts | 209° |
| 2026-05-06 19:35 | 48.53764 | 12.22022 | 9547 ft | 328 kts | 209° |
| 2026-05-06 19:35 | 48.51774 | 12.20343 | 9369 ft | 328 kts | 209° |
| 2026-05-06 19:35 | 48.49785 | 12.18669 | 9117 ft | 328 kts | 209° |
| 2026-05-06 19:36 | 48.48466 | 12.17559 | 8834 ft | 328 kts | 209° |
| 2026-05-06 19:36 | 48.46487 | 12.15896 | 8353 ft | 322 kts | 209° |
| 2026-05-06 19:36 | 48.44573 | 12.14287 | 7815 ft | 309 kts | 209° |
| 2026-05-06 19:36 | 48.42732 | 12.12742 | 7272 ft | 298 kts | 209° |
| 2026-05-06 19:37 | 48.40947 | 12.11245 | 6720 ft | 290 kts | 209° |
| 2026-05-06 19:37 | 48.39209 | 12.09788 | 6150 ft | 283 kts | 209° |
| 2026-05-06 19:37 | 48.37674 | 12.08045 | 5474 ft | 276 kts | 229° |
| 2026-05-06 19:37 | 48.36650 | 12.05664 | 5043 ft | 266 kts | 244° |
| 2026-05-06 19:38 | 48.36119 | 12.03144 | 4855 ft | 248 kts | 259° |
| 2026-05-06 19:38 | 48.36086 | 12.00682 | 4817 ft | 225 kts | 276° |
| 2026-05-06 19:38 | 48.36514 | 11.98551 | 4805 ft | 204 kts | 295° |
| 2026-05-06 19:38 | 48.37344 | 11.96856 | 4897 ft | 201 kts | 312° |
| 2026-05-06 19:39 | 48.38275 | 11.95210 | 4867 ft | 207 kts | 307° |
| 2026-05-06 19:39 | 48.39199 | 11.93554 | 4845 ft | 208 kts | 314° |
| 2026-05-06 19:39 | 48.40401 | 11.92360 | 4841 ft | 208 kts | 334° |
| 2026-05-06 19:39 | 48.41805 | 11.91819 | 4842 ft | 210 kts | 353° |
| 2026-05-06 19:40 | 48.43257 | 11.91994 | 4841 ft | 211 kts | 12° |
| 2026-05-06 19:40 | 48.44613 | 11.92879 | 4851 ft | 223 kts | 31° |
| 2026-05-06 19:40 | 48.45838 | 11.94493 | 4858 ft | 238 kts | 48° |
| 2026-05-06 19:40 | 48.46715 | 11.96579 | 4857 ft | 242 kts | 65° |
| 2026-05-06 19:41 | 48.47183 | 11.99013 | 4854 ft | 243 kts | 80° |
| 2026-05-06 19:41 | 48.47399 | 12.01534 | 4867 ft | 243 kts | 84° |
| 2026-05-06 19:41 | 48.47582 | 12.04067 | 4869 ft | 243 kts | 84° |
| 2026-05-06 19:41 | 48.47759 | 12.06599 | 4864 ft | 243 kts | 85° |
| 2026-05-06 19:42 | 48.47666 | 12.09155 | 4632 ft | 246 kts | 100° |
| 2026-05-06 19:42 | 48.47117 | 12.11551 | 4297 ft | 241 kts | 116° |
| 2026-05-06 19:42 | 48.46156 | 12.13585 | 3987 ft | 237 kts | 133° |
| 2026-05-06 19:42 | 48.44864 | 12.15076 | 3855 ft | 233 kts | 150° |
| 2026-05-06 19:43 | 48.43367 | 12.15906 | 3842 ft | 233 kts | 167° |
| 2026-05-06 19:43 | 48.41825 | 12.16040 | 3825 ft | 209 kts | 185° |
| 2026-05-06 19:43 | 48.40516 | 12.15487 | 3820 ft | 189 kts | 205° |
| 2026-05-06 19:43 | 48.39492 | 12.14328 | 3810 ft | 182 kts | 227° |
| 2026-05-06 19:44 | 48.39048 | 12.12582 | 3777 ft | 179 kts | 259° |
| 2026-05-06 19:44 | 48.38879 | 12.10732 | 3854 ft | 181 kts | 262° |
| 2026-05-06 19:44 | 48.38730 | 12.08854 | 3858 ft | 181 kts | 263° |
| 2026-05-06 19:44 | 48.38586 | 12.06977 | 3866 ft | 180 kts | 263° |
| 2026-05-06 19:45 | 48.38443 | 12.05102 | 3860 ft | 181 kts | 263° |
| 2026-05-06 19:45 | 48.38300 | 12.03229 | 3865 ft | 180 kts | 263° |
| 2026-05-06 19:45 | 48.38159 | 12.01386 | 3864 ft | 179 kts | 263° |
| 2026-05-06 19:45 | 48.38014 | 11.99505 | 3733 ft | 184 kts | 263° |
| 2026-05-06 19:46 | 48.37871 | 11.97631 | 3491 ft | 178 kts | 263° |
| 2026-05-06 19:46 | 48.37729 | 11.95777 | 3254 ft | 179 kts | 263° |
| 2026-05-06 19:46 | 48.37595 | 11.94017 | 3017 ft | 158 kts | 263° |
| 2026-05-06 19:46 | 48.37476 | 11.92488 | 2805 ft | 139 kts | 262° |
| 2026-05-06 19:47 | 48.37369 | 11.91057 | 2643 ft | 137 kts | 263° |
| 2026-05-06 19:47 | 48.37269 | 11.89644 | 2476 ft | 135 kts | 263° |
| 2026-05-06 19:47 | 48.37162 | 11.88241 | 2308 ft | 135 kts | 262° |
| 2026-05-06 19:47 | 48.37046 | 11.86824 | 2142 ft | 137 kts | 262° |
| 2026-05-06 19:48 | 48.36938 | 11.85429 | 1991 ft | 136 kts | 262° |
| 2026-05-06 19:48 | 48.36826 | 11.84009 | 1786 ft | 135 kts | 262° |
| 2026-05-06 19:48 | 48.36727 | 11.82630 | 1607 ft | 131 kts | 263° |
| 2026-05-06 19:48 | 48.36625 | 11.81290 | 1512 ft | 121 kts | 262° |
| 2026-05-06 19:49 | 48.36535 | 11.80156 | 1492 ft | 92 kts | 263° |
| 2026-05-06 19:49 | 48.36489 | 11.79491 | 1491 ft | 44 kts | 263° |
| 2026-05-06 19:49 | 48.36433 | 11.79019 | 1491 ft | 46 kts | 249° |
| 2026-05-06 19:49 | 48.36278 | 11.78661 | 1491 ft | 29 kts | 233° |
| 2026-05-06 19:50 | 48.36192 | 11.78505 | 1491 ft | 17 kts | 214° |
| 2026-05-06 19:50 | 48.36091 | 11.78483 | 1491 ft | 11 kts | 174° |
| 2026-05-06 19:50 | 48.36043 | 11.78517 | 1491 ft | 3 kts | 120° |
| 2026-05-06 19:50 | 48.36038 | 11.78589 | 1491 ft | 11 kts | 87° |
| 2026-05-06 19:51 | 48.36049 | 11.78725 | 1491 ft | 15 kts | 83° |
| 2026-05-06 19:51 | 48.36061 | 11.78895 | 1491 ft | 18 kts | 84° |
| 2026-05-06 19:51 | 48.36076 | 11.79084 | 1491 ft | 16 kts | 83° |
| 2026-05-06 19:51 | 48.36084 | 11.79195 | 1491 ft | 7 kts | 83° |
| 2026-05-06 19:52 | 48.36085 | 11.79210 | 1491 ft | 0 kts | 84° |